Time;durP1;ratioP1;P1;durP2;ratioP2;P2;SDS_P1;SDS_P2;PMS_P1;PMS_P2;Temp;Humidity;BMP_temperature;BMP_pressure;BME280_temperature;BME280_humidity;BME280_pressure;Samples;Min_cycle;Max_cycle;Signal;HPM_P1;HPM_P2
2022/07/02 00:00:42;;;;;;;14.30;10.25;;;;;;;22.86;57.70;95601.81;5007075;28;20021;-81
2022/07/02 00:03:08;;;;;;;20.13;10.98;;;;;;;22.80;57.85;95604.47;5005475;28;20484;-82
2022/07/02 00:05:33;;;;;;;14.68;10.23;;;;;;;22.79;58.30;95602.81;4989600;28;20336;-82
2022/07/02 00:07:59;;;;;;;12.32;9.70;;;;;;;22.89;57.85;95591.16;4988041;28;20033;-81
2022/07/02 00:10:24;;;;;;;14.52;10.27;;;;;;;22.94;58.02;95604.91;4972937;28;20053;-82
2022/07/02 00:12:49;;;;;;;12.18;9.80;;;;;;;22.92;57.88;95609.00;4988454;28;20405;-82
2022/07/02 00:15:15;;;;;;;12.52;10.23;;;;;;;22.95;57.69;95606.59;5004780;28;20041;-83
2022/07/02 00:17:41;;;;;;;12.10;10.10;;;;;;;22.97;57.61;95598.13;4973104;28;20022;-82
2022/07/02 00:20:07;;;;;;;12.55;10.10;;;;;;;22.92;57.69;95596.16;5004137;28;20026;-82
2022/07/02 00:22:32;;;;;;;19.52;9.90;;;;;;;22.89;57.79;95599.38;4989474;28;20041;-82
2022/07/02 00:24:58;;;;;;;14.48;9.35;;;;;;;22.90;57.40;95595.56;5003800;28;20030;-82
2022/07/02 00:27:23;;;;;;;13.52;10.23;;;;;;;22.91;57.23;95599.97;5005814;28;20022;-83
2022/07/02 00:29:58;;;;;;;14.25;10.20;;;;;;;22.84;57.68;95599.31;5004070;28;20033;-82
2022/07/02 00:32:25;;;;;;;11.93;10.10;;;;;;;22.89;57.72;95595.84;4988334;28;20508;-79
2022/07/02 00:34:52;;;;;;;12.82;9.88;;;;;;;22.91;58.01;95591.75;5005103;28;20046;-84
2022/07/02 00:37:17;;;;;;;14.43;9.52;;;;;;;22.87;57.91;95597.97;4989061;28;20049;-81
2022/07/02 00:39:43;;;;;;;14.13;9.13;;;;;;;22.84;58.06;95604.78;4992939;28;20040;-81
2022/07/02 00:42:09;;;;;;;11.52;9.15;;;;;;;22.84;57.45;95607.53;4991237;28;20030;-81
2022/07/02 00:44:34;;;;;;;11.23;8.88;;;;;;;22.74;57.05;95605.47;4993019;28;20029;-82
2022/07/02 00:47:07;;;;;;;13.00;9.30;;;;;;;22.72;56.99;95607.63;4991369;28;20145;-82
2022/07/02 00:49:33;;;;;;;10.43;8.80;;;;;;;22.70;56.68;95609.75;5008741;28;20030;-82
2022/07/02 00:51:59;;;;;;;11.25;7.95;;;;;;;22.70;56.64;95610.59;5008867;28;20026;-82
2022/07/02 00:54:25;;;;;;;9.13;7.78;;;;;;;22.68;55.78;95601.00;5009191;28;20063;-82
2022/07/02 00:56:52;;;;;;;13.32;8.65;;;;;;;22.70;56.09;95601.56;5009007;28;20062;-83
2022/07/02 00:59:18;;;;;;;11.02;8.25;;;;;;;22.68;55.86;95606.47;5007315;28;20102;-82
2022/07/02 01:01:43;;;;;;;9.77;8.43;;;;;;;22.64;56.27;95606.13;5009304;28;20392;-81
2022/07/02 01:04:09;;;;;;;11.80;8.35;;;;;;;22.62;55.79;95608.28;5023471;28;20030;-82
2022/07/02 01:06:34;;;;;;;10.57;8.60;;;;;;;22.62;56.11;95604.75;4976466;28;20026;-81
2022/07/02 01:11:43;;;;;;;9.07;7.97;;;;;;;22.51;56.84;95596.34;5009168;28;20111;-81
2022/07/02 01:14:09;;;;;;;9.13;8.15;;;;;;;22.55;56.96;95597.50;5008848;28;20439;-82
2022/07/02 01:16:34;;;;;;;9.93;8.32;;;;;;;22.50;56.47;95597.44;4990807;28;20033;-82
2022/07/02 01:18:59;;;;;;;11.32;7.93;;;;;;;22.50;57.16;95599.31;5008849;28;20032;-82
2022/07/02 01:21:25;;;;;;;10.98;7.95;;;;;;;22.48;57.09;95596.84;5007338;28;20030;-82
2022/07/02 01:23:50;;;;;;;11.52;8.18;;;;;;;22.40;55.80;95594.53;5008964;28;20030;-82
2022/07/02 01:26:16;;;;;;;11.98;8.27;;;;;;;22.40;56.05;95589.88;5008626;28;20038;-82
2022/07/02 01:28:41;;;;;;;9.98;7.78;;;;;;;22.35;56.66;95592.53;4992006;28;20061;-81
2022/07/02 01:31:06;;;;;;;10.27;7.38;;;;;;;22.29;57.24;95594.38;5009403;28;20018;-82
2022/07/02 01:33:32;;;;;;;9.25;8.02;;;;;;;22.28;56.76;95597.34;5006920;28;20532;-82
2022/07/02 01:35:58;;;;;;;8.50;7.57;;;;;;;22.27;56.42;95591.03;5008571;28;20152;-82
2022/07/02 01:38:23;;;;;;;9.48;8.02;;;;;;;22.29;55.98;95594.38;4990377;28;20041;-82
2022/07/02 01:40:49;;;;;;;8.70;7.80;;;;;;;22.27;56.34;95584.75;4992137;28;20026;-82
2022/07/02 01:43:14;;;;;;;9.50;7.72;;;;;;;22.26;56.85;95585.84;5006605;28;20440;-82
2022/07/02 01:45:40;;;;;;;11.20;7.63;;;;;;;22.21;57.03;95589.31;5008335;28;20052;-82
2022/07/02 01:48:05;;;;;;;8.57;7.50;;;;;;;22.19;57.15;95588.72;5008208;28;20022;-81
2022/07/02 01:50:34;;;;;;;10.70;8.15;;;;;;;22.16;56.81;95598.25;5006904;28;20511;-81
2022/07/02 01:52:59;;;;;;;11.48;8.30;;;;;;;22.13;57.53;95589.72;5009344;28;20271;-81
2022/07/02 01:55:25;;;;;;;10.20;7.80;;;;;;;22.12;57.54;95588.06;5006523;28;20033;-82
2022/07/02 01:57:51;;;;;;;10.65;8.65;;;;;;;22.06;57.35;95589.88;5008205;28;20382;-81
2022/07/02 02:00:16;;;;;;;12.23;8.35;;;;;;;22.01;57.05;95589.78;5006023;28;20535;-80
2022/07/02 02:02:42;;;;;;;8.90;7.97;;;;;;;21.97;57.54;95597.66;4991691;28;20409;-81
2022/07/02 02:05:08;;;;;;;12.18;8.10;;;;;;;21.93;58.03;95593.75;5006327;28;20029;-81
2022/07/02 02:07:33;;;;;;;10.00;8.15;;;;;;;21.83;57.66;95587.03;5009262;28;20021;-82
2022/07/02 02:09:58;;;;;;;11.45;8.70;;;;;;;21.84;57.91;95591.41;5008859;28;20041;-81
2022/07/02 02:12:24;;;;;;;10.65;8.50;;;;;;;21.82;58.09;95585.38;4990160;28;20030;-82
2022/07/02 02:14:49;;;;;;;10.32;8.45;;;;;;;21.81;58.30;95586.44;4991596;28;20472;-82
2022/07/02 02:17:15;;;;;;;14.70;8.05;;;;;;;21.79;58.90;95585.88;5005858;28;20108;-82
2022/07/02 02:19:40;;;;;;;12.70;9.05;;;;;;;21.78;58.93;95583.38;5007639;28;20033;-83
2022/07/02 02:22:06;;;;;;;14.98;9.05;;;;;;;21.75;59.44;95590.13;4989544;28;20029;-81
2022/07/02 02:24:31;;;;;;;12.10;8.18;;;;;;;21.72;58.84;95593.34;4991242;28;20547;-81
2022/07/02 02:26:58;;;;;;;12.60;8.50;;;;;;;21.68;58.63;95589.44;4989834;28;20163;-82
2022/07/02 02:29:23;;;;;;;12.30;8.65;;;;;;;21.65;59.73;95595.41;5008122;28;20049;-82
2022/07/02 02:31:48;;;;;;;13.18;8.32;;;;;;;21.57;59.30;95593.88;4990915;28;20453;-82
2022/07/02 02:34:14;;;;;;;12.00;8.07;;;;;;;21.49;59.28;95597.81;5005481;28;20050;-82
2022/07/02 02:36:39;;;;;;;12.25;9.10;;;;;;;21.49;59.34;95603.25;4991268;28;20022;-82
2022/07/02 02:39:05;;;;;;;12.23;8.23;;;;;;;21.44;59.69;95605.91;5006578;28;20037;-82
2022/07/02 02:41:30;;;;;;;11.00;8.80;;;;;;;21.42;59.68;95614.34;4974639;28;20468;-81
2022/07/02 02:43:56;;;;;;;14.48;9.32;;;;;;;21.38;59.80;95617.78;5006853;28;20029;-82
2022/07/02 02:46:21;;;;;;;10.55;8.68;;;;;;;21.39;59.95;95611.25;5006943;28;20034;-82
2022/07/02 02:48:47;;;;;;;14.63;9.20;;;;;;;21.36;60.21;95621.56;5006207;28;20084;-82
2022/07/02 02:51:15;;;;;;;12.85;8.80;;;;;;;21.38;60.35;95612.34;4989825;28;20104;-82
2022/07/02 02:53:42;;;;;;;9.95;8.43;;;;;;;21.36;60.16;95618.84;5006807;28;20033;-82
2022/07/02 02:56:07;;;;;;;10.32;8.25;;;;;;;21.38;59.59;95617.78;5005307;28;20795;-81
2022/07/02 02:58:33;;;;;;;13.52;8.73;;;;;;;21.41;59.66;95625.50;4990433;28;20028;-81
2022/07/02 03:00:58;;;;;;;11.15;8.73;;;;;;;21.43;59.76;95623.34;5005750;28;20026;-81
2022/07/02 03:03:24;;;;;;;14.38;8.82;;;;;;;21.43;59.42;95636.97;5007086;28;20018;-82
2022/07/02 03:05:50;;;;;;;12.23;9.10;;;;;;;21.45;59.38;95637.56;4989353;28;20100;-83
2022/07/02 03:08:15;;;;;;;12.32;9.27;;;;;;;21.47;59.34;95638.16;5006669;28;20859;-82
2022/07/02 03:10:40;;;;;;;11.75;8.82;;;;;;;21.43;59.32;95635.09;5006181;28;20026;-82
2022/07/02 03:13:06;;;;;;;12.30;9.38;;;;;;;21.41;59.49;95639.13;5005308;28;20458;-82
2022/07/02 03:15:31;;;;;;;16.10;9.23;;;;;;;21.41;59.60;95641.88;5008105;28;20026;-82
2022/07/02 03:17:57;;;;;;;14.38;10.32;;;;;;;21.40;59.19;95641.03;5006521;28;20468;-82
2022/07/02 03:20:22;;;;;;;10.75;9.63;;;;;;;21.36;59.86;95643.41;5008346;28;20417;-82
2022/07/02 03:22:47;;;;;;;11.70;9.48;;;;;;;21.36;59.80;95640.66;5004540;28;20030;-82
2022/07/02 03:25:13;;;;;;;11.35;9.77;;;;;;;21.33;60.02;95645.78;4974190;28;20099;-83
2022/07/02 03:27:39;;;;;;;13.00;10.90;;;;;;;21.32;59.82;95639.50;5005162;28;20476;-81
2022/07/02 03:30:05;;;;;;;12.88;11.20;;;;;;;21.38;59.69;95647.81;5007076;28;20034;-82
2022/07/02 03:32:31;;;;;;;13.82;10.35;;;;;;;21.31;59.91;95654.19;4989803;28;20033;-82
2022/07/02 03:34:57;;;;;;;13.32;10.55;;;;;;;21.35;59.58;95646.38;5004443;28;20042;-82
2022/07/02 03:37:28;;;;;;;13.25;9.40;;;;;;;21.39;59.25;95653.03;4990451;28;20429;-82
2022/07/02 03:39:53;;;;;;;12.57;9.23;;;;;;;21.41;59.45;95660.97;5004212;28;20028;-81
2022/07/02 03:42:19;;;;;;;11.30;10.00;;;;;;;21.42;60.12;95658.00;5006789;28;20028;-82
2022/07/02 03:44:44;;;;;;;13.07;10.02;;;;;;;21.42;60.81;95657.16;5005695;28;20480;-83
2022/07/02 03:47:09;;;;;;;10.02;9.00;;;;;;;21.45;60.54;95659.41;4989690;28;20488;-82
2022/07/02 03:49:35;;;;;;;14.07;10.30;;;;;;;21.48;61.07;95661.66;5005339;28;20080;-82
2022/07/02 03:52:01;;;;;;;12.10;9.50;;;;;;;21.49;60.74;95674.19;5021280;28;20025;-82
2022/07/02 03:54:26;;;;;;;16.35;9.65;;;;;;;21.51;60.54;95663.03;4990021;28;20049;-82
2022/07/02 03:56:51;;;;;;;11.15;9.68;;;;;;;21.54;60.95;95660.66;5005554;28;20109;-82
2022/07/02 03:59:17;;;;;;;15.13;9.98;;;;;;;21.51;60.21;95666.63;4989892;28;20021;-82
2022/07/02 04:01:42;;;;;;;17.02;10.57;;;;;;;21.56;59.07;95668.63;4988104;28;20044;-81
2022/07/02 04:04:08;;;;;;;12.90;10.57;;;;;;;21.60;58.83;95667.09;5007786;28;20037;-82
2022/07/02 04:06:33;;;;;;;18.45;10.65;;;;;;;21.65;58.63;95674.53;5004661;28;20084;-82
2022/07/02 04:08:59;;;;;;;12.32;9.98;;;;;;;21.68;58.56;95665.88;4989044;28;20080;-81
2022/07/02 04:11:25;;;;;;;17.33;10.48;;;;;;;21.73;58.35;95669.50;5007437;28;20022;-81
2022/07/02 04:13:50;;;;;;;13.38;10.77;;;;;;;21.76;58.47;95673.69;4992114;28;20033;-81
2022/07/02 04:16:18;;;;;;;13.10;10.50;;;;;;;21.81;58.70;95676.50;4994192;28;20516;-82
2022/07/02 04:18:43;;;;;;;15.18;10.23;;;;;;;21.83;58.60;95685.31;5008772;28;20037;-81
2022/07/02 04:21:09;;;;;;;14.50;10.05;;;;;;;21.90;59.15;95681.59;5011777;28;20034;-82
2022/07/02 04:23:34;;;;;;;13.73;10.90;;;;;;;21.94;58.90;95678.13;5008717;28;20030;-81
2022/07/02 04:26:00;;;;;;;12.05;10.80;;;;;;;22.03;58.57;95681.31;5009863;28;20488;-82
2022/07/02 04:28:26;;;;;;;16.10;12.80;;;;;;;22.05;58.24;95668.25;5010218;28;20026;-82
2022/07/02 04:30:51;;;;;;;16.42;11.27;;;;;;;22.22;58.60;95679.22;5008712;28;20038;-82
2022/07/02 04:33:17;;;;;;;17.15;10.73;;;;;;;22.35;58.15;95682.69;4977148;28;20128;-82
2022/07/02 04:35:42;;;;;;;19.95;11.35;;;;;;;22.48;57.84;95687.00;5007936;28;20026;-82
2022/07/02 04:38:08;;;;;;;17.50;10.55;;;;;;;22.60;57.32;95692.44;5010460;28;20025;-81
2022/07/02 04:40:33;;;;;;;18.02;10.13;;;;;;;22.68;57.85;95688.47;5009187;28;20436;-83
2022/07/02 04:42:58;;;;;;;13.05;9.57;;;;;;;22.69;56.69;95682.75;4993346;28;20520;-83
2022/07/02 04:45:24;;;;;;;14.07;9.82;;;;;;;22.69;57.16;95682.75;4975441;28;20033;-83
2022/07/02 04:47:49;;;;;;;19.00;9.63;;;;;;;22.78;56.74;95677.69;5010383;28;20034;-82
2022/07/02 04:50:15;;;;;;;16.70;9.55;;;;;;;22.83;56.53;95679.66;5008963;28;20034;-82
2022/07/02 04:52:40;;;;;;;16.80;9.82;;;;;;;22.83;56.27;95682.41;5009416;28;20060;-82
2022/07/02 04:55:06;;;;;;;10.93;9.15;;;;;;;22.88;55.85;95681.66;5009662;28;20022;-82
2022/07/02 04:57:31;;;;;;;12.10;8.95;;;;;;;22.88;55.91;95687.13;4974940;28;20598;-83
2022/07/02 04:59:57;;;;;;;15.18;10.18;;;;;;;22.96;55.88;95700.38;5010398;28;20033;-82
2022/07/02 05:02:23;;;;;;;11.35;9.85;;;;;;;22.98;56.24;95698.22;5009040;28;20030;-82
2022/07/02 05:04:49;;;;;;;12.40;9.32;;;;;;;23.13;55.60;95688.59;5009270;28;20033;-84
2022/07/02 05:07:14;;;;;;;11.75;9.50;;;;;;;23.16;55.57;95688.09;4991681;28;20300;-83
2022/07/02 05:09:40;;;;;;;17.20;10.40;;;;;;;23.31;55.41;95691.03;5008561;28;20034;-82
2022/07/02 05:12:06;;;;;;;19.17;10.07;;;;;;;23.40;54.77;95690.66;4992270;28;20540;-83
2022/07/02 05:14:31;;;;;;;15.68;9.43;;;;;;;23.49;55.16;95685.56;5007341;28;20030;-85
2022/07/02 05:16:56;;;;;;;12.30;9.07;;;;;;;23.57;54.82;95690.59;4992713;28;20500;-82
2022/07/02 05:19:22;;;;;;;10.45;8.98;;;;;;;23.71;54.64;95682.84;4990537;28;20026;-82
2022/07/02 05:21:47;;;;;;;10.02;8.98;;;;;;;23.78;54.59;95683.47;5009010;28;20022;-82
2022/07/02 05:24:13;;;;;;;16.45;9.02;;;;;;;23.89;53.79;95691.81;5007386;28;20026;-83
2022/07/02 05:26:38;;;;;;;10.73;8.50;;;;;;;24.02;53.49;95691.41;5009053;28;20030;-82
2022/07/02 05:29:04;;;;;;;13.45;9.50;;;;;;;24.10;53.26;95692.88;5008030;28;20026;-83
2022/07/02 05:31:29;;;;;;;13.02;8.80;;;;;;;24.20;52.75;95692.16;4975476;28;20029;-83
2022/07/02 05:33:54;;;;;;;10.00;8.80;;;;;;;24.36;52.72;95697.81;5008717;28;20056;-82
2022/07/02 05:36:20;;;;;;;9.10;8.20;;;;;;;24.37;52.87;95699.47;5006758;28;20029;-82
2022/07/02 05:38:45;;;;;;;10.82;9.50;;;;;;;24.46;53.03;95703.38;4976092;28;20018;-82
2022/07/02 05:41:11;;;;;;;14.45;10.10;;;;;;;24.52;53.33;95696.84;5007750;28;20026;-83
2022/07/02 05:43:36;;;;;;;11.75;9.18;;;;;;;24.52;52.22;95702.34;4992221;28;20539;-83
2022/07/02 05:46:02;;;;;;;13.45;10.13;;;;;;;24.52;52.12;95702.34;4990411;28;20034;-83
2022/07/02 05:48:27;;;;;;;9.80;8.80;;;;;;;24.39;52.99;95705.53;4991505;28;20034;-82
2022/07/02 05:50:53;;;;;;;10.82;9.70;;;;;;;24.44;53.31;95705.53;5007596;28;20495;-83
2022/07/02 05:53:18;;;;;;;13.85;9.18;;;;;;;24.61;53.32;95705.44;5006741;28;20163;-83
2022/07/02 05:55:43;;;;;;;14.35;9.65;;;;;;;24.54;53.08;95705.66;5008409;28;20026;-82
2022/07/02 05:58:10;;;;;;;10.73;9.23;;;;;;;24.60;53.27;95701.03;5006370;28;20018;-83
2022/07/02 06:00:35;;;;;;;13.40;9.63;;;;;;;24.69;52.77;95701.41;5009900;28;20037;-82
2022/07/02 06:03:00;;;;;;;14.90;10.38;;;;;;;24.62;52.37;95703.53;4990246;28;20055;-83
2022/07/02 06:08:10;;;;;;;11.07;9.38;;;;;;;24.65;53.58;95695.59;4994175;28;20036;-83
2022/07/02 06:10:35;;;;;;;15.25;10.38;;;;;;;24.84;53.42;95702.63;4973819;28;20026;-83
2022/07/02 06:13:01;;;;;;;13.32;10.70;;;;;;;25.02;52.78;95712.41;5007864;28;20418;-82
2022/07/02 06:15:27;;;;;;;14.48;11.98;;;;;;;25.18;52.34;95699.59;5006010;28;20061;-83
2022/07/02 06:17:53;;;;;;;11.57;10.35;;;;;;;25.16;52.55;95702.63;5009578;28;20018;-84
2022/07/02 06:20:18;;;;;;;14.32;10.90;;;;;;;25.22;52.17;95703.47;5005856;28;20026;-83
2022/07/02 06:22:43;;;;;;;12.35;10.27;;;;;;;25.36;51.53;95711.25;5007766;28;20030;-84
2022/07/02 06:25:09;;;;;;;12.50;10.88;;;;;;;25.10;51.33;95713.81;5007635;28;20029;-83
2022/07/02 06:27:34;;;;;;;15.38;11.10;;;;;;;25.09;51.11;95715.72;5006781;28;20038;-84
2022/07/02 06:30:01;;;;;;;12.23;10.65;;;;;;;25.26;50.89;95710.06;5007703;28;20061;-83
2022/07/02 06:32:27;;;;;;;15.05;11.02;;;;;;;25.50;49.82;95708.84;5007097;28;20018;-83
2022/07/02 06:34:53;;;;;;;15.52;10.57;;;;;;;25.51;49.97;95711.31;5007452;28;20069;-83
2022/07/02 06:37:19;;;;;;;15.13;10.95;;;;;;;25.52;50.45;95712.97;5006177;28;20030;-84
2022/07/02 06:39:44;;;;;;;19.10;10.20;;;;;;;25.59;50.71;95715.47;5007069;28;20026;-84
2022/07/02 06:42:18;;;;;;;13.30;10.20;;;;;;;25.49;50.41;95708.00;5005625;28;20734;-84
2022/07/02 06:44:44;;;;;;;12.18;10.52;;;;;;;25.50;50.45;95715.19;5008175;28;20030;-83
2022/07/02 06:47:10;;;;;;;13.98;10.48;;;;;;;25.54;50.29;95710.78;5006870;28;20420;-84
2022/07/02 06:49:35;;;;;;;15.52;10.70;;;;;;;25.69;49.89;95709.25;4989246;28;20022;-82
2022/07/02 06:52:00;;;;;;;15.23;9.70;;;;;;;25.86;50.42;95710.97;5007186;28;20030;-83
2022/07/02 06:54:26;;;;;;;14.07;9.70;;;;;;;25.90;49.72;95712.06;5006400;28;20037;-83
2022/07/02 06:56:51;;;;;;;11.23;10.02;;;;;;;25.78;49.29;95718.63;5007189;28;20034;-84
2022/07/02 06:59:17;;;;;;;12.15;9.77;;;;;;;25.91;48.83;95714.56;5006864;28;20029;-83
2022/07/02 07:01:42;;;;;;;11.98;9.73;;;;;;;26.11;49.65;95712.16;5008277;28;20067;-84
2022/07/02 07:04:08;;;;;;;14.68;10.13;;;;;;;26.06;48.55;95707.47;5007228;28;20029;-83
2022/07/02 07:06:37;;;;;;;12.93;9.57;;;;;;;26.21;47.95;95716.84;5006238;28;20030;-87
2022/07/02 07:09:02;;;;;;;13.85;9.38;;;;;;;26.12;48.41;95719.28;5008245;28;20040;-84
2022/07/02 07:11:28;;;;;;;10.77;8.80;;;;;;;26.08;48.63;95712.69;5005264;28;20528;-85
2022/07/02 07:13:53;;;;;;;11.52;9.38;;;;;;;26.40;49.02;95717.19;5008177;28;20018;-83
2022/07/02 07:16:19;;;;;;;10.52;8.95;;;;;;;26.40;47.75;95714.44;5004969;28;20104;-84
2022/07/02 07:21:15;;;;;;;13.68;8.65;;;;;;;26.41;47.54;95714.19;5005270;28;20408;-83
2022/07/02 07:23:41;;;;;;;11.30;8.90;;;;;;;26.67;49.70;95724.38;5006363;28;20032;-83
2022/07/02 07:26:06;;;;;;;10.25;8.05;;;;;;;26.98;48.88;95718.06;4989928;28;20051;-85
2022/07/02 07:28:32;;;;;;;12.50;9.13;;;;;;;26.95;48.04;95716.72;4989013;28;20048;-84
2022/07/02 07:30:57;;;;;;;11.18;8.60;;;;;;;27.18;47.92;95711.75;5006640;28;20082;-84
2022/07/02 07:33:23;;;;;;;11.18;8.50;;;;;;;27.08;46.98;95717.28;5006022;28;20046;-85
2022/07/02 07:35:48;;;;;;;10.30;8.50;;;;;;;27.01;46.90;95718.38;5006675;28;20488;-84
2022/07/02 07:38:14;;;;;;;12.50;9.07;;;;;;;26.96;47.13;95726.59;5004959;28;20463;-85
2022/07/02 07:40:39;;;;;;;14.93;9.23;;;;;;;27.22;48.00;95723.88;5006565;28;20092;-84
2022/07/02 07:43:04;;;;;;;16.45;9.52;;;;;;;27.42;46.88;95724.94;4989293;28;20030;-85
2022/07/02 07:45:30;;;;;;;11.68;9.05;;;;;;;27.47;45.87;95713.09;5005899;28;20034;-85
2022/07/02 07:47:55;;;;;;;10.05;9.07;;;;;;;27.55;46.88;95715.28;5005671;28;20033;-85
2022/07/02 07:50:21;;;;;;;15.35;9.18;;;;;;;27.62;46.00;95718.56;4988242;28;20042;-85
2022/07/02 07:52:47;;;;;;;16.25;9.13;;;;;;;27.24;46.25;95718.09;5006259;28;20033;-84
2022/07/02 07:55:12;;;;;;;11.82;9.00;;;;;;;27.07;46.88;95712.88;5004243;28;20084;-84
2022/07/02 07:57:38;;;;;;;11.73;8.50;;;;;;;26.98;47.30;95718.91;4990164;28;20084;-84
2022/07/02 08:00:04;;;;;;;17.33;9.95;;;;;;;26.91;47.28;95715.59;4987981;28;20025;-84
2022/07/02 08:02:30;;;;;;;18.13;9.73;;;;;;;26.83;47.15;95710.63;5006287;28;20436;-83
2022/07/02 08:04:55;;;;;;;13.93;9.85;;;;;;;26.83;47.88;95710.63;4988907;28;20037;-84
2022/07/02 08:07:21;;;;;;;11.95;9.00;;;;;;;26.72;47.92;95707.91;5005090;28;20032;-84
2022/07/02 08:09:52;;;;;;;12.25;9.07;;;;;;;26.73;48.09;95712.28;4973527;28;20045;-83
2022/07/02 08:12:19;;;;;;;11.60;8.98;;;;;;;26.74;47.97;95710.38;5004318;28;20410;-84
2022/07/02 08:14:44;;;;;;;12.00;9.35;;;;;;;27.23;48.90;95714.50;5006388;28;20513;-84
2022/07/02 08:17:10;;;;;;;11.48;9.70;;;;;;;27.42;46.94;95713.94;4987730;28;20029;-83
2022/07/02 08:19:36;;;;;;;10.48;8.93;;;;;;;27.55;46.20;95714.44;5007485;28;20037;-82
2022/07/02 08:22:01;;;;;;;13.52;8.38;;;;;;;27.72;46.30;95708.63;4988507;28;20029;-83
2022/07/02 08:24:27;;;;;;;14.40;9.40;;;;;;;27.70;45.96;95714.41;5005526;28;20026;-83
2022/07/02 08:26:52;;;;;;;14.15;8.73;;;;;;;27.68;46.20;95713.06;5006974;28;20026;-84
2022/07/02 08:29:17;;;;;;;10.73;9.63;;;;;;;27.76;45.39;95718.81;5005919;28;20033;-84
2022/07/02 08:31:43;;;;;;;11.93;8.55;;;;;;;27.96;45.41;95719.00;5006198;28;20037;-84
2022/07/02 08:34:08;;;;;;;15.00;8.48;;;;;;;28.06;44.50;95718.13;5003543;28;20050;-83
2022/07/02 08:36:34;;;;;;;11.43;8.65;;;;;;;28.12;44.52;95715.06;5007362;28;20032;-83
2022/07/02 08:39:00;;;;;;;9.13;8.23;;;;;;;28.32;43.56;95710.59;5004187;28;20044;-83
2022/07/02 08:41:25;;;;;;;9.93;8.10;;;;;;;28.56;43.57;95712.66;4989652;28;20461;-84
2022/07/02 08:43:51;;;;;;;10.15;8.95;;;;;;;28.74;43.16;95713.88;4988964;28;20038;-85
2022/07/02 08:46:16;;;;;;;11.85;9.15;;;;;;;29.03;46.49;95722.53;5005616;28;20477;-85
2022/07/02 08:48:42;;;;;;;11.57;10.15;;;;;;;29.26;45.86;95720.94;4977557;28;20045;-84
2022/07/02 08:51:08;;;;;;;13.95;10.07;;;;;;;29.27;45.42;95727.28;5003689;28;20034;-83
2022/07/02 08:53:34;;;;;;;9.68;8.73;;;;;;;29.32;43.75;95713.44;4989826;28;20169;-83
2022/07/02 08:55:59;;;;;;;9.63;8.27;;;;;;;29.10;42.71;95715.56;5004000;28;20034;-84
2022/07/02 08:58:25;;;;;;;14.05;8.65;;;;;;;28.98;42.24;95715.97;5008398;28;20095;-83
2022/07/02 09:00:50;;;;;;;8.95;7.93;;;;;;;28.91;43.21;95720.94;4991709;28;20041;-84
2022/07/02 09:03:19;;;;;;;12.00;8.93;;;;;;;29.26;44.16;95720.94;4992765;28;20033;-84
2022/07/02 09:05:45;;;;;;;8.98;8.05;;;;;;;29.52;44.40;95722.66;5009514;28;20029;-85
2022/07/02 09:08:10;;;;;;;10.02;7.82;;;;;;;29.57;41.73;95717.03;4975022;28;20029;-85
2022/07/02 09:10:35;;;;;;;12.40;8.80;;;;;;;29.35;41.56;95712.84;4992787;28;20438;-84
2022/07/02 09:13:01;;;;;;;10.80;8.30;;;;;;;29.15;41.80;95706.41;4991074;28;20115;-85
2022/07/02 09:15:26;;;;;;;9.90;8.60;;;;;;;29.36;41.64;95714.50;5009348;28;20026;-84
2022/07/02 09:17:52;;;;;;;10.45;8.18;;;;;;;29.47;41.73;95699.47;5008859;28;20105;-84
2022/07/02 09:20:17;;;;;;;9.90;7.95;;;;;;;29.45;42.24;95701.72;5008814;28;20033;-83
2022/07/02 09:22:45;;;;;;;13.15;7.82;;;;;;;29.73;41.25;95703.91;4991891;28;20022;-85
2022/07/02 09:25:11;;;;;;;8.57;7.15;;;;;;;29.82;39.56;95704.94;5009038;28;20022;-84
2022/07/02 09:27:36;;;;;;;9.45;7.35;;;;;;;29.86;40.15;95707.91;5010458;28;20129;-83
2022/07/02 09:30:02;;;;;;;9.13;7.10;;;;;;;29.90;40.61;95700.69;5008188;28;20034;-85
2022/07/02 09:32:28;;;;;;;7.68;6.93;;;;;;;29.94;40.53;95698.13;5009007;28;20105;-84
2022/07/02 09:34:54;;;;;;;12.20;7.50;;;;;;;30.06;40.22;95697.72;5006681;28;20667;-84
2022/07/02 09:37:23;;;;;;;11.77;9.27;;;;;;;30.00;40.71;95701.66;4992331;28;20030;-83
2022/07/02 09:39:50;;;;;;;11.88;10.43;;;;;;;29.96;40.70;95705.03;5023888;28;20033;-83
2022/07/02 09:42:32;;;;;;;9.43;8.52;;;;;;;30.16;40.17;95708.66;5008140;28;20049;-84
2022/07/02 09:44:58;;;;;;;16.23;14.53;;;;;;;30.15;40.85;95709.75;5010321;28;20026;-85
2022/07/02 09:47:37;;;;;;;9.27;8.27;;;;;;;30.35;40.85;95699.56;5006719;28;20269;-84
2022/07/02 09:50:03;;;;;;;9.05;7.20;;;;;;;30.23;39.91;95698.06;4992902;28;20504;-83
2022/07/02 09:52:29;;;;;;;9.60;7.20;;;;;;;30.11;41.01;95694.88;5008126;28;20026;-86
2022/07/02 09:54:54;;;;;;;11.05;7.65;;;;;;;30.16;41.10;95697.59;5010041;28;20051;-84
2022/07/02 09:57:19;;;;;;;8.02;7.22;;;;;;;30.19;40.76;95696.19;4990846;28;20118;-83
2022/07/02 09:59:45;;;;;;;8.35;7.18;;;;;;;30.25;40.93;95694.16;5007265;28;20458;-84
2022/07/02 10:02:22;;;;;;;7.88;6.70;;;;;;;30.35;38.68;95686.56;5007960;28;20030;-83
2022/07/02 10:04:50;;;;;;;8.43;6.07;;;;;;;30.35;38.01;95681.03;5007601;28;20022;-83
2022/07/02 10:07:15;;;;;;;6.88;6.05;;;;;;;30.32;39.02;95673.34;5008270;28;20034;-84
2022/07/02 10:09:42;;;;;;;7.20;5.90;;;;;;;30.29;36.97;95678.63;5006655;28;20026;-83
2022/07/02 10:12:10;;;;;;;8.20;6.05;;;;;;;30.26;37.80;95682.00;4994992;28;20041;-84
2022/07/02 10:14:36;;;;;;;8.40;6.40;;;;;;;30.29;37.81;95678.63;5009457;28;20018;-84
2022/07/02 10:17:02;;;;;;;10.55;6.38;;;;;;;30.34;37.79;95671.06;4991240;28;20416;-83
2022/07/02 10:19:28;;;;;;;8.52;6.22;;;;;;;30.38;37.86;95670.47;5007676;28;20018;-84
2022/07/02 10:21:53;;;;;;;11.45;6.60;;;;;;;30.39;37.37;95661.88;5006106;28;20030;-84
2022/07/02 10:24:21;;;;;;;10.10;7.38;;;;;;;30.41;38.25;95659.63;4991803;28;20033;-84
2022/07/02 10:26:46;;;;;;;9.15;6.20;;;;;;;30.45;38.55;95657.09;5005652;28;20535;-85
2022/07/02 10:29:12;;;;;;;7.88;6.28;;;;;;;30.49;38.21;95651.78;5007875;28;20030;-84
2022/07/02 10:31:39;;;;;;;11.02;6.50;;;;;;;30.55;37.13;95656.91;4989528;28;20033;-85
2022/07/02 10:34:23;;;;;;;7.72;6.93;;;;;;;30.60;36.48;95667.09;5007339;28;20049;-84
2022/07/02 10:36:48;;;;;;;10.65;6.78;;;;;;;30.58;36.95;95663.81;5008638;28;20045;-85
2022/07/02 10:39:19;;;;;;;8.27;7.18;;;;;;;30.53;37.27;95661.13;4989856;28;20052;-83
2022/07/02 10:41:44;;;;;;;7.50;6.80;;;;;;;30.50;37.38;95665.31;5007568;28;20532;-82
2022/07/02 10:44:10;;;;;;;7.85;6.75;;;;;;;30.49;37.36;95660.09;4989229;28;20034;-83
2022/07/02 10:46:35;;;;;;;7.32;6.15;;;;;;;30.56;36.25;95657.75;5008988;28;20033;-83
2022/07/02 10:49:01;;;;;;;6.60;5.90;;;;;;;30.60;36.21;95658.78;5006154;28;20412;-85
2022/07/02 10:51:32;;;;;;;7.40;6.38;;;;;;;30.66;36.42;95659.53;4991027;28;20041;-84
2022/07/02 10:54:02;;;;;;;8.88;5.88;;;;;;;30.65;36.92;95655.94;5008483;28;20026;-85
2022/07/02 10:56:28;;;;;;;11.65;6.55;;;;;;;30.72;37.40;95661.09;5005654;28;20064;-83
2022/07/02 10:58:53;;;;;;;9.60;6.82;;;;;;;30.78;38.16;95659.06;4991112;28;20022;-85
2022/07/02 11:01:23;;;;;;;6.93;6.22;;;;;;;30.74;39.35;95660.78;5005293;28;20022;-86
2022/07/02 11:03:55;;;;;;;7.72;6.57;;;;;;;30.94;37.39;95654.09;5007011;28;20021;-83
2022/07/02 11:06:25;;;;;;;11.00;6.40;;;;;;;30.89;38.22;95663.31;5005460;28;20161;-85
2022/07/02 11:08:57;;;;;;;7.72;6.78;;;;;;;30.86;37.08;95661.16;5006422;28;20026;-84
2022/07/02 11:11:30;;;;;;;10.50;6.93;;;;;;;30.70;38.92;95666.09;4990878;28;20041;-85
2022/07/02 11:13:59;;;;;;;8.18;6.50;;;;;;;30.18;38.51;95662.13;5005048;28;20408;-84
2022/07/02 11:16:37;;;;;;;8.85;6.35;;;;;;;29.57;40.05;95656.25;5007029;28;20022;-86
2022/07/02 11:19:02;;;;;;;8.45;6.50;;;;;;;29.40;40.04;95649.28;5004664;28;20314;-84
2022/07/02 11:21:31;;;;;;;7.45;6.68;;;;;;;29.14;41.47;95652.31;5006181;28;20072;-86
2022/07/02 11:23:57;;;;;;;18.88;7.30;;;;;;;29.34;40.67;95655.97;5009463;28;20025;-85
2022/07/02 11:26:27;;;;;;;6.80;5.95;;;;;;;29.62;46.77;95661.75;5011313;28;20013;-86